Aviation Digital Data Service (ADDS)

Output produced by METARs form (0019 UTC 17 July 2019)
found at http://www.aviationweather.gov/metar/data/
 
ESTA 162350Z AUTO 33004KT 310V010 9999 FEW062/// 13/09 Q1013
TAF ESTA 161716Z 1618/1621 32019KT 9999 FEW030 
     BECMG 1618/1621 32008KT